sensor_id;sensor_type;location;lat;lon;timestamp;P1;durP1;ratioP1;P2;durP2;ratioP2
20336;SDS011;10326;53.660;10.200;2022-07-03T00:00:20;1.90;;;1.80;;
20336;SDS011;10326;53.660;10.200;2022-07-03T00:02:48;2.30;;;2.10;;
20336;SDS011;10326;53.660;10.200;2022-07-03T00:05:16;2.28;;;1.98;;
20336;SDS011;10326;53.660;10.200;2022-07-03T00:07:44;1.80;;;1.70;;
20336;SDS011;10326;53.660;10.200;2022-07-03T00:10:11;2.33;;;2.13;;
20336;SDS011;10326;53.660;10.200;2022-07-03T00:12:38;3.05;;;2.13;;
20336;SDS011;10326;53.660;10.200;2022-07-03T00:15:05;1.90;;;1.80;;
20336;SDS011;10326;53.660;10.200;2022-07-03T00:17:34;2.10;;;2.00;;
20336;SDS011;10326;53.660;10.200;2022-07-03T00:20:02;2.33;;;2.20;;
20336;SDS011;10326;53.660;10.200;2022-07-03T00:22:30;2.42;;;1.95;;
20336;SDS011;10326;53.660;10.200;2022-07-03T00:25:01;2.15;;;1.90;;
20336;SDS011;10326;53.660;10.200;2022-07-03T00:27:31;2.10;;;2.00;;
20336;SDS011;10326;53.660;10.200;2022-07-03T00:30:01;3.22;;;2.10;;
20336;SDS011;10326;53.660;10.200;2022-07-03T00:32:30;2.20;;;1.80;;
20336;SDS011;10326;53.660;10.200;2022-07-03T00:34:58;1.98;;;1.85;;
20336;SDS011;10326;53.660;10.200;2022-07-03T00:37:26;2.08;;;1.90;;
20336;SDS011;10326;53.660;10.200;2022-07-03T00:39:53;2.00;;;1.90;;
20336;SDS011;10326;53.660;10.200;2022-07-03T00:42:21;2.13;;;1.80;;
20336;SDS011;10326;53.660;10.200;2022-07-03T00:44:48;1.80;;;1.70;;
20336;SDS011;10326;53.660;10.200;2022-07-03T00:47:17;4.43;;;2.13;;
20336;SDS011;10326;53.660;10.200;2022-07-03T00:49:48;2.22;;;2.00;;
20336;SDS011;10326;53.660;10.200;2022-07-03T00:52:17;2.13;;;2.03;;
20336;SDS011;10326;53.660;10.200;2022-07-03T00:54:50;2.00;;;1.90;;
20336;SDS011;10326;53.660;10.200;2022-07-03T00:57:20;1.90;;;1.80;;
20336;SDS011;10326;53.660;10.200;2022-07-03T00:59:50;2.13;;;1.98;;
20336;SDS011;10326;53.660;10.200;2022-07-03T01:02:22;2.10;;;2.00;;
20336;SDS011;10326;53.660;10.200;2022-07-03T01:05:02;2.67;;;1.77;;
20336;SDS011;10326;53.660;10.200;2022-07-03T01:07:37;2.15;;;2.00;;
20336;SDS011;10326;53.660;10.200;2022-07-03T01:10:18;2.00;;;1.90;;
20336;SDS011;10326;53.660;10.200;2022-07-03T01:12:56;2.17;;;1.80;;
20336;SDS011;10326;53.660;10.200;2022-07-03T01:15:36;2.10;;;1.90;;
20336;SDS011;10326;53.660;10.200;2022-07-03T01:18:13;2.45;;;1.80;;
20336;SDS011;10326;53.660;10.200;2022-07-03T01:20:52;2.10;;;2.00;;
20336;SDS011;10326;53.660;10.200;2022-07-03T01:23:30;1.90;;;1.80;;
20336;SDS011;10326;53.660;10.200;2022-07-03T01:26:15;2.33;;;2.05;;
20336;SDS011;10326;53.660;10.200;2022-07-03T01:28:44;2.67;;;1.90;;
20336;SDS011;10326;53.660;10.200;2022-07-03T01:31:13;1.90;;;1.80;;
20336;SDS011;10326;53.660;10.200;2022-07-03T01:33:46;2.10;;;1.90;;
20336;SDS011;10326;53.660;10.200;2022-07-03T01:36:17;2.20;;;2.00;;
20336;SDS011;10326;53.660;10.200;2022-07-03T01:38:45;2.38;;;2.17;;
20336;SDS011;10326;53.660;10.200;2022-07-03T01:41:17;1.70;;;1.60;;
20336;SDS011;10326;53.660;10.200;2022-07-03T01:43:47;2.28;;;2.08;;
20336;SDS011;10326;53.660;10.200;2022-07-03T01:46:16;2.08;;;1.90;;
20336;SDS011;10326;53.660;10.200;2022-07-03T01:48:45;2.00;;;1.90;;
20336;SDS011;10326;53.660;10.200;2022-07-03T01:51:14;3.58;;;1.83;;
20336;SDS011;10326;53.660;10.200;2022-07-03T01:53:43;1.88;;;1.77;;
20336;SDS011;10326;53.660;10.200;2022-07-03T01:56:13;1.95;;;1.85;;
20336;SDS011;10326;53.660;10.200;2022-07-03T01:58:43;2.58;;;2.05;;
20336;SDS011;10326;53.660;10.200;2022-07-03T02:01:12;2.42;;;2.13;;
20336;SDS011;10326;53.660;10.200;2022-07-03T02:03:50;4.22;;;2.20;;
20336;SDS011;10326;53.660;10.200;2022-07-03T02:06:28;2.75;;;2.20;;
20336;SDS011;10326;53.660;10.200;2022-07-03T02:09:03;2.30;;;2.10;;
20336;SDS011;10326;53.660;10.200;2022-07-03T02:11:34;2.20;;;2.00;;
20336;SDS011;10326;53.660;10.200;2022-07-03T02:14:11;3.25;;;2.10;;
20336;SDS011;10326;53.660;10.200;2022-07-03T02:16:43;3.35;;;2.20;;
20336;SDS011;10326;53.660;10.200;2022-07-03T02:19:17;2.50;;;2.30;;
20336;SDS011;10326;53.660;10.200;2022-07-03T02:21:47;2.30;;;2.10;;
20336;SDS011;10326;53.660;10.200;2022-07-03T02:24:19;2.10;;;1.90;;
20336;SDS011;10326;53.660;10.200;2022-07-03T02:26:53;2.15;;;2.05;;
20336;SDS011;10326;53.660;10.200;2022-07-03T02:29:28;2.17;;;2.00;;
20336;SDS011;10326;53.660;10.200;2022-07-03T02:31:59;2.63;;;2.10;;
20336;SDS011;10326;53.660;10.200;2022-07-03T02:34:30;2.47;;;2.28;;
20336;SDS011;10326;53.660;10.200;2022-07-03T02:37:10;2.20;;;2.10;;
20336;SDS011;10326;53.660;10.200;2022-07-03T02:39:44;2.10;;;1.90;;
20336;SDS011;10326;53.660;10.200;2022-07-03T02:42:26;1.70;;;1.60;;
20336;SDS011;10326;53.660;10.200;2022-07-03T02:45:01;2.00;;;1.75;;
20336;SDS011;10326;53.660;10.200;2022-07-03T02:47:33;2.33;;;2.17;;
20336;SDS011;10326;53.660;10.200;2022-07-03T02:50:11;2.10;;;2.00;;
20336;SDS011;10326;53.660;10.200;2022-07-03T02:52:50;2.22;;;2.13;;
20336;SDS011;10326;53.660;10.200;2022-07-03T02:58:13;2.20;;;2.10;;
20336;SDS011;10326;53.660;10.200;2022-07-03T03:00:59;1.98;;;1.80;;
20336;SDS011;10326;53.660;10.200;2022-07-03T03:03:33;2.25;;;2.15;;
20336;SDS011;10326;53.660;10.200;2022-07-03T03:06:04;2.72;;;2.53;;
20336;SDS011;10326;53.660;10.200;2022-07-03T03:08:42;2.97;;;2.30;;
20336;SDS011;10326;53.660;10.200;2022-07-03T03:11:15;2.40;;;2.20;;
20336;SDS011;10326;53.660;10.200;2022-07-03T03:13:50;2.28;;;2.00;;
20336;SDS011;10326;53.660;10.200;2022-07-03T03:16:24;2.03;;;1.83;;
20336;SDS011;10326;53.660;10.200;2022-07-03T03:18:52;2.35;;;2.15;;
20336;SDS011;10326;53.660;10.200;2022-07-03T03:21:19;2.30;;;1.95;;
20336;SDS011;10326;53.660;10.200;2022-07-03T03:23:50;1.90;;;1.80;;
20336;SDS011;10326;53.660;10.200;2022-07-03T03:26:18;2.38;;;1.95;;
20336;SDS011;10326;53.660;10.200;2022-07-03T03:28:46;2.58;;;2.38;;
20336;SDS011;10326;53.660;10.200;2022-07-03T03:31:15;2.42;;;2.03;;
20336;SDS011;10326;53.660;10.200;2022-07-03T03:33:45;2.50;;;2.30;;
20336;SDS011;10326;53.660;10.200;2022-07-03T03:36:14;2.13;;;2.03;;
20336;SDS011;10326;53.660;10.200;2022-07-03T03:38:45;2.15;;;1.95;;
20336;SDS011;10326;53.660;10.200;2022-07-03T03:41:13;2.10;;;2.00;;
20336;SDS011;10326;53.660;10.200;2022-07-03T03:43:40;2.33;;;2.05;;
20336;SDS011;10326;53.660;10.200;2022-07-03T03:46:07;3.03;;;2.20;;
20336;SDS011;10326;53.660;10.200;2022-07-03T03:48:35;2.08;;;1.92;;
20336;SDS011;10326;53.660;10.200;2022-07-03T03:51:04;2.30;;;2.10;;
20336;SDS011;10326;53.660;10.200;2022-07-03T03:53:32;3.50;;;2.30;;
20336;SDS011;10326;53.660;10.200;2022-07-03T03:55:59;2.72;;;2.03;;
20336;SDS011;10326;53.660;10.200;2022-07-03T03:58:28;2.22;;;2.03;;
20336;SDS011;10326;53.660;10.200;2022-07-03T04:00:56;2.03;;;1.92;;
20336;SDS011;10326;53.660;10.200;2022-07-03T04:03:23;2.03;;;1.92;;
20336;SDS011;10326;53.660;10.200;2022-07-03T04:05:51;2.50;;;1.98;;
20336;SDS011;10326;53.660;10.200;2022-07-03T04:08:21;2.20;;;2.08;;
20336;SDS011;10326;53.660;10.200;2022-07-03T04:10:50;2.97;;;2.10;;
20336;SDS011;10326;53.660;10.200;2022-07-03T04:13:17;2.03;;;1.92;;
20336;SDS011;10326;53.660;10.200;2022-07-03T04:15:45;2.28;;;2.00;;
20336;SDS011;10326;53.660;10.200;2022-07-03T04:18:13;3.25;;;2.00;;
20336;SDS011;10326;53.660;10.200;2022-07-03T04:20:40;2.30;;;2.10;;
20336;SDS011;10326;53.660;10.200;2022-07-03T04:23:08;2.30;;;2.20;;
20336;SDS011;10326;53.660;10.200;2022-07-03T04:25:36;3.63;;;2.47;;
20336;SDS011;10326;53.660;10.200;2022-07-03T04:28:03;2.53;;;2.30;;
20336;SDS011;10326;53.660;10.200;2022-07-03T04:30:30;2.03;;;1.92;;
20336;SDS011;10326;53.660;10.200;2022-07-03T04:32:57;2.40;;;2.20;;
20336;SDS011;10326;53.660;10.200;2022-07-03T04:35:24;2.10;;;2.00;;
20336;SDS011;10326;53.660;10.200;2022-07-03T04:37:51;2.33;;;2.05;;
20336;SDS011;10326;53.660;10.200;2022-07-03T04:40:18;2.03;;;1.92;;
20336;SDS011;10326;53.660;10.200;2022-07-03T04:42:47;2.47;;;2.28;;
20336;SDS011;10326;53.660;10.200;2022-07-03T04:45:14;2.33;;;2.15;;
20336;SDS011;10326;53.660;10.200;2022-07-03T04:47:41;2.33;;;2.13;;
20336;SDS011;10326;53.660;10.200;2022-07-03T04:50:08;2.20;;;2.00;;
20336;SDS011;10326;53.660;10.200;2022-07-03T04:52:35;2.30;;;2.10;;
20336;SDS011;10326;53.660;10.200;2022-07-03T04:55:02;2.00;;;1.90;;
20336;SDS011;10326;53.660;10.200;2022-07-03T04:57:31;2.58;;;2.30;;
20336;SDS011;10326;53.660;10.200;2022-07-03T04:59:59;3.15;;;2.25;;
20336;SDS011;10326;53.660;10.200;2022-07-03T05:02:27;2.95;;;2.33;;
20336;SDS011;10326;53.660;10.200;2022-07-03T05:04:54;2.40;;;2.30;;
20336;SDS011;10326;53.660;10.200;2022-07-03T05:07:21;2.90;;;2.30;;
20336;SDS011;10326;53.660;10.200;2022-07-03T05:09:48;2.55;;;2.35;;
20336;SDS011;10326;53.660;10.200;2022-07-03T05:12:15;2.28;;;2.08;;
20336;SDS011;10326;53.660;10.200;2022-07-03T05:14:43;2.70;;;2.50;;
20336;SDS011;10326;53.660;10.200;2022-07-03T05:17:11;2.60;;;2.40;;
20336;SDS011;10326;53.660;10.200;2022-07-03T05:19:38;2.28;;;2.17;;
20336;SDS011;10326;53.660;10.200;2022-07-03T05:22:05;2.50;;;2.10;;
20336;SDS011;10326;53.660;10.200;2022-07-03T05:24:32;2.40;;;2.20;;
20336;SDS011;10326;53.660;10.200;2022-07-03T05:26:59;3.00;;;2.72;;
20336;SDS011;10326;53.660;10.200;2022-07-03T05:29:26;2.53;;;2.42;;
20336;SDS011;10326;53.660;10.200;2022-07-03T05:31:53;2.60;;;2.50;;
20336;SDS011;10326;53.660;10.200;2022-07-03T05:34:23;2.35;;;2.17;;
20336;SDS011;10326;53.660;10.200;2022-07-03T05:36:49;2.28;;;2.10;;
20336;SDS011;10326;53.660;10.200;2022-07-03T05:39:16;2.88;;;2.22;;
20336;SDS011;10326;53.660;10.200;2022-07-03T05:41:58;1.95;;;1.85;;
20336;SDS011;10326;53.660;10.200;2022-07-03T05:44:25;2.17;;;2.05;;
20336;SDS011;10326;53.660;10.200;2022-07-03T05:46:52;2.03;;;1.92;;
20336;SDS011;10326;53.660;10.200;2022-07-03T05:49:20;2.15;;;2.05;;
20336;SDS011;10326;53.660;10.200;2022-07-03T05:51:48;2.20;;;2.05;;
20336;SDS011;10326;53.660;10.200;2022-07-03T05:54:15;2.17;;;2.00;;
20336;SDS011;10326;53.660;10.200;2022-07-03T05:56:42;2.60;;;2.40;;
20336;SDS011;10326;53.660;10.200;2022-07-03T05:59:09;2.38;;;2.17;;
20336;SDS011;10326;53.660;10.200;2022-07-03T06:01:36;2.05;;;1.95;;
20336;SDS011;10326;53.660;10.200;2022-07-03T06:04:04;3.33;;;2.28;;
20336;SDS011;10326;53.660;10.200;2022-07-03T06:06:31;2.42;;;2.22;;
20336;SDS011;10326;53.660;10.200;2022-07-03T06:08:59;2.55;;;2.20;;
20336;SDS011;10326;53.660;10.200;2022-07-03T06:11:26;2.22;;;2.03;;
20336;SDS011;10326;53.660;10.200;2022-07-03T06:13:53;2.72;;;2.53;;
20336;SDS011;10326;53.660;10.200;2022-07-03T06:16:20;2.30;;;2.10;;
20336;SDS011;10326;53.660;10.200;2022-07-03T06:18:48;1.88;;;1.77;;
20336;SDS011;10326;53.660;10.200;2022-07-03T06:21:15;3.13;;;2.30;;
20336;SDS011;10326;53.660;10.200;2022-07-03T06:23:42;1.90;;;1.80;;
20336;SDS011;10326;53.660;10.200;2022-07-03T06:26:10;2.30;;;2.15;;
20336;SDS011;10326;53.660;10.200;2022-07-03T06:28:38;2.20;;;2.10;;
20336;SDS011;10326;53.660;10.200;2022-07-03T06:31:05;2.33;;;2.15;;
20336;SDS011;10326;53.660;10.200;2022-07-03T06:33:32;2.38;;;2.17;;
20336;SDS011;10326;53.660;10.200;2022-07-03T06:35:59;2.50;;;2.30;;
20336;SDS011;10326;53.660;10.200;2022-07-03T06:38:26;2.28;;;2.08;;
20336;SDS011;10326;53.660;10.200;2022-07-03T06:40:53;2.40;;;2.20;;
20336;SDS011;10326;53.660;10.200;2022-07-03T06:43:22;2.35;;;2.15;;
20336;SDS011;10326;53.660;10.200;2022-07-03T06:45:49;2.33;;;2.10;;
20336;SDS011;10326;53.660;10.200;2022-07-03T06:48:16;1.80;;;1.70;;
20336;SDS011;10326;53.660;10.200;2022-07-03T06:50:45;1.85;;;1.73;;
20336;SDS011;10326;53.660;10.200;2022-07-03T06:53:12;2.25;;;2.10;;
20336;SDS011;10326;53.660;10.200;2022-07-03T06:55:39;2.33;;;1.90;;
20336;SDS011;10326;53.660;10.200;2022-07-03T06:58:06;2.15;;;2.05;;
20336;SDS011;10326;53.660;10.200;2022-07-03T07:00:35;2.00;;;1.83;;
20336;SDS011;10326;53.660;10.200;2022-07-03T07:03:03;2.13;;;2.00;;
20336;SDS011;10326;53.660;10.200;2022-07-03T07:05:30;2.05;;;1.70;;
20336;SDS011;10326;53.660;10.200;2022-07-03T07:07:57;2.28;;;1.95;;
20336;SDS011;10326;53.660;10.200;2022-07-03T07:10:25;2.03;;;1.90;;
20336;SDS011;10326;53.660;10.200;2022-07-03T07:12:52;2.00;;;1.80;;
20336;SDS011;10326;53.660;10.200;2022-07-03T07:15:19;2.03;;;1.77;;
20336;SDS011;10326;53.660;10.200;2022-07-03T07:17:47;1.90;;;1.73;;
20336;SDS011;10326;53.660;10.200;2022-07-03T07:20:14;1.77;;;1.67;;
20336;SDS011;10326;53.660;10.200;2022-07-03T07:22:41;4.28;;;2.40;;
20336;SDS011;10326;53.660;10.200;2022-07-03T07:25:09;1.95;;;1.85;;
20336;SDS011;10326;53.660;10.200;2022-07-03T07:27:36;2.20;;;1.98;;
20336;SDS011;10326;53.660;10.200;2022-07-03T07:30:03;2.20;;;2.00;;
20336;SDS011;10326;53.660;10.200;2022-07-03T07:32:31;2.25;;;2.08;;
20336;SDS011;10326;53.660;10.200;2022-07-03T07:34:59;2.17;;;1.80;;
20336;SDS011;10326;53.660;10.200;2022-07-03T07:37:26;2.13;;;1.98;;
20336;SDS011;10326;53.660;10.200;2022-07-03T07:39:53;2.70;;;1.83;;
20336;SDS011;10326;53.660;10.200;2022-07-03T07:42:21;2.47;;;2.28;;
20336;SDS011;10326;53.660;10.200;2022-07-03T07:44:49;2.05;;;1.95;;
20336;SDS011;10326;53.660;10.200;2022-07-03T07:47:16;2.67;;;2.47;;
20336;SDS011;10326;53.660;10.200;2022-07-03T07:49:43;2.20;;;2.00;;
20336;SDS011;10326;53.660;10.200;2022-07-03T07:52:12;2.60;;;2.10;;
20336;SDS011;10326;53.660;10.200;2022-07-03T07:54:39;2.20;;;2.10;;
20336;SDS011;10326;53.660;10.200;2022-07-03T07:57:06;2.30;;;1.92;;
20336;SDS011;10326;53.660;10.200;2022-07-03T07:59:33;2.25;;;1.73;;
20336;SDS011;10326;53.660;10.200;2022-07-03T08:02:00;3.22;;;1.73;;
20336;SDS011;10326;53.660;10.200;2022-07-03T08:04:45;1.90;;;1.80;;
20336;SDS011;10326;53.660;10.200;2022-07-03T08:07:31;1.95;;;1.85;;
20336;SDS011;10326;53.660;10.200;2022-07-03T08:09:59;2.42;;;2.13;;
20336;SDS011;10326;53.660;10.200;2022-07-03T08:12:26;1.80;;;1.70;;
20336;SDS011;10326;53.660;10.200;2022-07-03T08:14:53;2.33;;;2.13;;
20336;SDS011;10326;53.660;10.200;2022-07-03T08:17:20;1.92;;;1.73;;
20336;SDS011;10326;53.660;10.200;2022-07-03T08:19:47;2.95;;;1.77;;
20336;SDS011;10326;53.660;10.200;2022-07-03T08:22:14;2.03;;;1.80;;
20336;SDS011;10326;53.660;10.200;2022-07-03T08:24:43;1.98;;;1.73;;
20336;SDS011;10326;53.660;10.200;2022-07-03T08:27:10;2.05;;;1.85;;
20336;SDS011;10326;53.660;10.200;2022-07-03T08:29:37;2.08;;;1.63;;
20336;SDS011;10326;53.660;10.200;2022-07-03T08:32:04;1.80;;;1.70;;
20336;SDS011;10326;53.660;10.200;2022-07-03T08:34:33;1.88;;;1.70;;
20336;SDS011;10326;53.660;10.200;2022-07-03T08:37:00;1.58;;;1.48;;
20336;SDS011;10326;53.660;10.200;2022-07-03T08:39:27;1.60;;;1.50;;
20336;SDS011;10326;53.660;10.200;2022-07-03T08:41:56;1.50;;;1.40;;
20336;SDS011;10326;53.660;10.200;2022-07-03T08:44:24;2.10;;;1.67;;
20336;SDS011;10326;53.660;10.200;2022-07-03T08:46:52;1.55;;;1.27;;
20336;SDS011;10326;53.660;10.200;2022-07-03T08:49:22;1.55;;;1.42;;
20336;SDS011;10326;53.660;10.200;2022-07-03T08:51:49;1.67;;;1.58;;
20336;SDS011;10326;53.660;10.200;2022-07-03T08:54:18;1.48;;;1.38;;
20336;SDS011;10326;53.660;10.200;2022-07-03T08:56:46;1.23;;;1.15;;
20336;SDS011;10326;53.660;10.200;2022-07-03T08:59:15;1.70;;;1.60;;
20336;SDS011;10326;53.660;10.200;2022-07-03T09:01:45;1.55;;;1.45;;
20336;SDS011;10326;53.660;10.200;2022-07-03T09:04:13;1.73;;;1.50;;
20336;SDS011;10326;53.660;10.200;2022-07-03T09:06:41;1.38;;;1.20;;
20336;SDS011;10326;53.660;10.200;2022-07-03T09:09:09;1.20;;;1.10;;
20336;SDS011;10326;53.660;10.200;2022-07-03T09:11:36;1.58;;;1.20;;
20336;SDS011;10326;53.660;10.200;2022-07-03T09:14:04;1.63;;;1.42;;
20336;SDS011;10326;53.660;10.200;2022-07-03T09:16:35;1.67;;;1.58;;
20336;SDS011;10326;53.660;10.200;2022-07-03T09:19:03;1.60;;;1.50;;
20336;SDS011;10326;53.660;10.200;2022-07-03T09:21:36;1.55;;;1.45;;
20336;SDS011;10326;53.660;10.200;2022-07-03T09:24:04;1.25;;;1.10;;
20336;SDS011;10326;53.660;10.200;2022-07-03T09:26:33;3.05;;;1.30;;
20336;SDS011;10326;53.660;10.200;2022-07-03T09:29:01;1.38;;;1.27;;
20336;SDS011;10326;53.660;10.200;2022-07-03T09:31:30;3.50;;;1.42;;
20336;SDS011;10326;53.660;10.200;2022-07-03T09:34:00;1.95;;;1.30;;
20336;SDS011;10326;53.660;10.200;2022-07-03T09:36:39;1.20;;;1.10;;
20336;SDS011;10326;53.660;10.200;2022-07-03T09:39:13;1.42;;;1.23;;
20336;SDS011;10326;53.660;10.200;2022-07-03T09:41:56;1.38;;;1.27;;
20336;SDS011;10326;53.660;10.200;2022-07-03T09:44:27;2.20;;;1.48;;
20336;SDS011;10326;53.660;10.200;2022-07-03T09:47:05;1.60;;;1.50;;
20336;SDS011;10326;53.660;10.200;2022-07-03T09:49:47;1.50;;;1.30;;
20336;SDS011;10326;53.660;10.200;2022-07-03T09:52:36;1.25;;;1.15;;
20336;SDS011;10326;53.660;10.200;2022-07-03T09:55:12;1.50;;;1.38;;
20336;SDS011;10326;53.660;10.200;2022-07-03T09:57:45;1.20;;;1.20;;
20336;SDS011;10326;53.660;10.200;2022-07-03T10:00:25;2.33;;;1.65;;
20336;SDS011;10326;53.660;10.200;2022-07-03T10:02:54;1.83;;;1.23;;
20336;SDS011;10326;53.660;10.200;2022-07-03T10:05:25;1.50;;;1.40;;
20336;SDS011;10326;53.660;10.200;2022-07-03T10:07:55;1.63;;;1.52;;
20336;SDS011;10326;53.660;10.200;2022-07-03T10:10:24;2.05;;;1.40;;
20336;SDS011;10326;53.660;10.200;2022-07-03T10:12:54;1.60;;;1.50;;
20336;SDS011;10326;53.660;10.200;2022-07-03T10:15:23;1.40;;;1.30;;
20336;SDS011;10326;53.660;10.200;2022-07-03T10:17:52;1.58;;;1.48;;
20336;SDS011;10326;53.660;10.200;2022-07-03T10:20:23;3.83;;;1.48;;
20336;SDS011;10326;53.660;10.200;2022-07-03T10:22:54;1.60;;;1.50;;
20336;SDS011;10326;53.660;10.200;2022-07-03T10:25:22;2.25;;;1.70;;
20336;SDS011;10326;53.660;10.200;2022-07-03T10:27:49;1.95;;;1.58;;
20336;SDS011;10326;53.660;10.200;2022-07-03T10:30:17;1.60;;;1.50;;
20336;SDS011;10326;53.660;10.200;2022-07-03T10:32:47;1.65;;;1.55;;
20336;SDS011;10326;53.660;10.200;2022-07-03T10:35:18;1.60;;;1.50;;
20336;SDS011;10326;53.660;10.200;2022-07-03T10:38:07;1.75;;;1.52;;
20336;SDS011;10326;53.660;10.200;2022-07-03T10:40:47;1.60;;;1.50;;
20336;SDS011;10326;53.660;10.200;2022-07-03T10:43:39;2.35;;;1.40;;
20336;SDS011;10326;53.660;10.200;2022-07-03T10:46:27;1.48;;;1.38;;
20336;SDS011;10326;53.660;10.200;2022-07-03T10:49:02;2.05;;;1.30;;
20336;SDS011;10326;53.660;10.200;2022-07-03T10:51:31;1.88;;;1.30;;
20336;SDS011;10326;53.660;10.200;2022-07-03T10:54:19;1.67;;;1.40;;
20336;SDS011;10326;53.660;10.200;2022-07-03T11:02:27;1.67;;;1.50;;
20336;SDS011;10326;53.660;10.200;2022-07-03T11:05:04;2.42;;;1.30;;
20336;SDS011;10326;53.660;10.200;2022-07-03T11:07:43;1.52;;;1.35;;
20336;SDS011;10326;53.660;10.200;2022-07-03T11:10:31;1.80;;;1.40;;
20336;SDS011;10326;53.660;10.200;2022-07-03T11:13:06;1.63;;;1.50;;
20336;SDS011;10326;53.660;10.200;2022-07-03T11:15:47;2.85;;;1.30;;
20336;SDS011;10326;53.660;10.200;2022-07-03T11:18:25;2.58;;;1.50;;
20336;SDS011;10326;53.660;10.200;2022-07-03T11:24:07;1.55;;;1.42;;
20336;SDS011;10326;53.660;10.200;2022-07-03T11:27:17;1.83;;;1.40;;
20336;SDS011;10326;53.660;10.200;2022-07-03T11:29:57;2.25;;;1.58;;
20336;SDS011;10326;53.660;10.200;2022-07-03T11:38:24;1.55;;;1.20;;
20336;SDS011;10326;53.660;10.200;2022-07-03T11:40:54;2.85;;;1.48;;
20336;SDS011;10326;53.660;10.200;2022-07-03T11:43:26;1.50;;;1.40;;
20336;SDS011;10326;53.660;10.200;2022-07-03T11:45:53;1.55;;;1.45;;
20336;SDS011;10326;53.660;10.200;2022-07-03T11:48:21;1.40;;;1.30;;
20336;SDS011;10326;53.660;10.200;2022-07-03T11:50:52;1.70;;;1.60;;
20336;SDS011;10326;53.660;10.200;2022-07-03T11:53:25;1.40;;;1.27;;
20336;SDS011;10326;53.660;10.200;2022-07-03T11:55:56;2.60;;;1.50;;
20336;SDS011;10326;53.660;10.200;2022-07-03T11:58:35;2.35;;;1.45;;
20336;SDS011;10326;53.660;10.200;2022-07-03T12:01:08;1.30;;;1.20;;
20336;SDS011;10326;53.660;10.200;2022-07-03T12:03:36;2.38;;;1.50;;
20336;SDS011;10326;53.660;10.200;2022-07-03T12:06:03;2.85;;;1.45;;
20336;SDS011;10326;53.660;10.200;2022-07-03T12:08:31;1.55;;;1.30;;
20336;SDS011;10326;53.660;10.200;2022-07-03T12:10:59;1.23;;;1.13;;
20336;SDS011;10326;53.660;10.200;2022-07-03T12:13:31;2.35;;;1.63;;
20336;SDS011;10326;53.660;10.200;2022-07-03T12:16:05;1.95;;;1.38;;
20336;SDS011;10326;53.660;10.200;2022-07-03T12:18:46;1.48;;;1.27;;
20336;SDS011;10326;53.660;10.200;2022-07-03T12:21:16;1.83;;;1.50;;
20336;SDS011;10326;53.660;10.200;2022-07-03T12:23:46;2.28;;;1.30;;
20336;SDS011;10326;53.660;10.200;2022-07-03T12:29:01;2.75;;;1.40;;
20336;SDS011;10326;53.660;10.200;2022-07-03T12:31:30;1.20;;;1.00;;
20336;SDS011;10326;53.660;10.200;2022-07-03T12:33:59;1.45;;;1.35;;
20336;SDS011;10326;53.660;10.200;2022-07-03T12:36:27;2.00;;;1.30;;
20336;SDS011;10326;53.660;10.200;2022-07-03T12:38:55;2.05;;;1.30;;
20336;SDS011;10326;53.660;10.200;2022-07-03T12:41:26;1.35;;;1.25;;
20336;SDS011;10326;53.660;10.200;2022-07-03T12:43:53;2.15;;;1.20;;
20336;SDS011;10326;53.660;10.200;2022-07-03T12:46:24;1.75;;;1.10;;
20336;SDS011;10326;53.660;10.200;2022-07-03T12:48:53;1.27;;;1.17;;
20336;SDS011;10326;53.660;10.200;2022-07-03T12:51:38;2.15;;;0.90;;
20336;SDS011;10326;53.660;10.200;2022-07-03T12:54:08;1.33;;;1.08;;
20336;SDS011;10326;53.660;10.200;2022-07-03T12:56:38;0.90;;;0.85;;
20336;SDS011;10326;53.660;10.200;2022-07-03T12:59:07;1.45;;;1.05;;
20336;SDS011;10326;53.660;10.200;2022-07-03T13:02:00;1.80;;;1.10;;
20336;SDS011;10326;53.660;10.200;2022-07-03T13:04:30;3.38;;;1.13;;
20336;SDS011;10326;53.660;10.200;2022-07-03T13:07:03;1.23;;;1.10;;
20336;SDS011;10326;53.660;10.200;2022-07-03T13:09:32;1.50;;;1.40;;
20336;SDS011;10326;53.660;10.200;2022-07-03T13:11:59;2.60;;;1.30;;
20336;SDS011;10326;53.660;10.200;2022-07-03T13:14:27;1.52;;;1.40;;
20336;SDS011;10326;53.660;10.200;2022-07-03T13:16:54;1.55;;;1.30;;
20336;SDS011;10326;53.660;10.200;2022-07-03T13:19:24;1.35;;;1.20;;
20336;SDS011;10326;53.660;10.200;2022-07-03T13:21:54;1.63;;;1.15;;
20336;SDS011;10326;53.660;10.200;2022-07-03T13:24:22;1.55;;;1.15;;
20336;SDS011;10326;53.660;10.200;2022-07-03T13:26:50;1.85;;;1.20;;
20336;SDS011;10326;53.660;10.200;2022-07-03T13:29:19;1.83;;;1.27;;
20336;SDS011;10326;53.660;10.200;2022-07-03T13:31:49;1.60;;;0.90;;
20336;SDS011;10326;53.660;10.200;2022-07-03T13:34:16;1.67;;;1.00;;
20336;SDS011;10326;53.660;10.200;2022-07-03T13:36:45;1.30;;;1.00;;
20336;SDS011;10326;53.660;10.200;2022-07-03T13:39:14;2.50;;;1.17;;
20336;SDS011;10326;53.660;10.200;2022-07-03T13:41:41;3.35;;;1.15;;
20336;SDS011;10326;53.660;10.200;2022-07-03T13:44:08;2.05;;;1.10;;
20336;SDS011;10326;53.660;10.200;2022-07-03T13:46:35;2.13;;;1.10;;
20336;SDS011;10326;53.660;10.200;2022-07-03T13:49:02;1.50;;;1.10;;
20336;SDS011;10326;53.660;10.200;2022-07-03T13:51:29;1.25;;;1.10;;
20336;SDS011;10326;53.660;10.200;2022-07-03T13:53:58;1.23;;;1.10;;
20336;SDS011;10326;53.660;10.200;2022-07-03T13:56:25;1.40;;;1.00;;
20336;SDS011;10326;53.660;10.200;2022-07-03T13:58:52;1.25;;;1.00;;
20336;SDS011;10326;53.660;10.200;2022-07-03T14:01:19;1.23;;;1.13;;
20336;SDS011;10326;53.660;10.200;2022-07-03T14:03:46;2.72;;;1.20;;
20336;SDS011;10326;53.660;10.200;2022-07-03T14:06:13;2.60;;;1.00;;
20336;SDS011;10326;53.660;10.200;2022-07-03T14:08:41;2.10;;;0.90;;
20336;SDS011;10326;53.660;10.200;2022-07-03T14:11:09;1.35;;;1.10;;
20336;SDS011;10326;53.660;10.200;2022-07-03T14:13:36;1.35;;;1.00;;
20336;SDS011;10326;53.660;10.200;2022-07-03T14:16:03;1.92;;;1.10;;
20336;SDS011;10326;53.660;10.200;2022-07-03T14:18:31;2.55;;;1.38;;
20336;SDS011;10326;53.660;10.200;2022-07-03T14:20:58;1.15;;;1.00;;
20336;SDS011;10326;53.660;10.200;2022-07-03T14:23:25;2.88;;;0.77;;
20336;SDS011;10326;53.660;10.200;2022-07-03T14:25:52;1.60;;;1.08;;
20336;SDS011;10326;53.660;10.200;2022-07-03T14:28:21;1.73;;;1.05;;
20336;SDS011;10326;53.660;10.200;2022-07-03T14:31:05;2.55;;;1.08;;
20336;SDS011;10326;53.660;10.200;2022-07-03T14:33:50;1.58;;;1.00;;
20336;SDS011;10326;53.660;10.200;2022-07-03T14:36:18;1.00;;;0.90;;
20336;SDS011;10326;53.660;10.200;2022-07-03T14:38:46;0.88;;;0.80;;
20336;SDS011;10326;53.660;10.200;2022-07-03T14:41:13;1.48;;;0.80;;
20336;SDS011;10326;53.660;10.200;2022-07-03T14:43:41;1.92;;;0.80;;
20336;SDS011;10326;53.660;10.200;2022-07-03T14:46:08;2.03;;;0.90;;
20336;SDS011;10326;53.660;10.200;2022-07-03T14:48:35;1.40;;;1.00;;
20336;SDS011;10326;53.660;10.200;2022-07-03T14:51:02;1.63;;;0.90;;
20336;SDS011;10326;53.660;10.200;2022-07-03T14:53:30;1.42;;;0.90;;
20336;SDS011;10326;53.660;10.200;2022-07-03T14:55:57;2.05;;;0.90;;
20336;SDS011;10326;53.660;10.200;2022-07-03T14:58:26;1.52;;;0.93;;
20336;SDS011;10326;53.660;10.200;2022-07-03T15:00:55;2.45;;;0.98;;
20336;SDS011;10326;53.660;10.200;2022-07-03T15:03:26;0.88;;;0.88;;
20336;SDS011;10326;53.660;10.200;2022-07-03T15:05:55;1.42;;;0.77;;
20336;SDS011;10326;53.660;10.200;2022-07-03T15:08:30;1.25;;;0.95;;
20336;SDS011;10326;53.660;10.200;2022-07-03T15:11:12;1.00;;;0.80;;